createdAt,value
2022-09-21T00:01:34.259Z,1.57
2022-09-21T00:04:04.897Z,2.07
2022-09-21T00:06:35.197Z,1.30
2022-09-21T00:09:05.089Z,1.60
2022-09-21T00:11:35.496Z,1.33
2022-09-21T00:14:07.948Z,1.33
2022-09-21T00:16:36.455Z,1.57
2022-09-21T00:19:04.665Z,1.30
2022-09-21T00:21:32.974Z,1.30
2022-09-21T00:24:02.516Z,1.37
2022-09-21T00:26:31.467Z,1.50
2022-09-21T00:29:03.184Z,1.23
2022-09-21T00:31:32.457Z,1.80
2022-09-21T00:34:03.394Z,1.80
2022-09-21T00:36:31.718Z,1.10
2022-09-21T00:39:02.709Z,1.43
2022-09-21T00:41:33.775Z,1.03
2022-09-21T00:44:36.497Z,1.60
2022-09-21T00:47:09.020Z,1.53
2022-09-21T00:49:38.106Z,1.20
2022-09-21T00:52:08.316Z,1.50
2022-09-21T00:54:43.440Z,1.10
2022-09-21T00:57:12.300Z,1.23
2022-09-21T00:59:44.255Z,1.20
2022-09-21T01:02:12.696Z,1.23
2022-09-21T01:04:40.833Z,1.90
2022-09-21T01:07:13.117Z,1.20
2022-09-21T01:09:43.064Z,1.77
2022-09-21T01:12:27.663Z,1.33
2022-09-21T01:15:15.868Z,1.17
2022-09-21T01:17:52.403Z,1.70
2022-09-21T01:20:44.773Z,1.37
2022-09-21T01:24:03.844Z,1.43
2022-09-21T01:26:54.108Z,1.23
2022-09-21T01:29:28.462Z,1.60
2022-09-21T01:32:01.897Z,1.40
2022-09-21T01:34:35.055Z,0.73
2022-09-21T01:37:08.287Z,1.20
2022-09-21T01:39:38.152Z,1.33
2022-09-21T01:42:08.545Z,1.07
2022-09-21T01:44:40.442Z,1.17
2022-09-21T01:47:12.464Z,1.00
2022-09-21T01:49:46.009Z,1.13
2022-09-21T01:52:19.742Z,1.60
2022-09-21T01:55:00.073Z,1.27
2022-09-21T01:57:36.160Z,1.43
2022-09-21T02:00:08.504Z,1.50
2022-09-21T02:02:42.716Z,1.07
2022-09-21T02:05:12.242Z,1.30
2022-09-21T02:07:40.981Z,1.27
2022-09-21T02:10:14.704Z,1.33
2022-09-21T02:12:42.754Z,0.80
2022-09-21T02:15:12.617Z,1.33
2022-09-21T02:17:50.719Z,1.33
2022-09-21T02:20:25.484Z,0.90
2022-09-21T02:23:04.965Z,1.23
2022-09-21T02:25:43.669Z,0.90
2022-09-21T02:28:22.474Z,1.10
2022-09-21T02:31:00.458Z,1.77
2022-09-21T02:33:33.676Z,1.20
2022-09-21T02:36:11.265Z,1.13
2022-09-21T02:38:46.986Z,0.90
2022-09-21T02:41:24.990Z,1.03
2022-09-21T02:44:02.839Z,1.83
2022-09-21T02:46:36.300Z,1.53
2022-09-21T02:49:09.170Z,0.90
2022-09-21T02:51:43.093Z,1.30
2022-09-21T02:54:14.971Z,1.80
2022-09-21T02:56:43.731Z,1.17
2022-09-21T02:59:12.146Z,0.90
2022-09-21T03:01:42.348Z,1.00
2022-09-21T03:04:10.957Z,1.27
2022-09-21T03:06:38.954Z,1.13
2022-09-21T03:09:06.905Z,1.20
2022-09-21T03:11:35.992Z,1.00
2022-09-21T03:14:05.435Z,1.13
2022-09-21T03:16:33.583Z,1.27
2022-09-21T03:19:02.958Z,1.00
2022-09-21T03:21:31.040Z,1.30
2022-09-21T03:23:59.036Z,1.07
2022-09-21T03:26:27.156Z,1.60
2022-09-21T03:28:55.564Z,0.90
2022-09-21T03:31:23.942Z,1.30
2022-09-21T03:33:51.963Z,0.80
2022-09-21T03:36:21.859Z,1.23
2022-09-21T03:38:49.883Z,1.07
2022-09-21T03:41:18.816Z,1.10
2022-09-21T03:43:46.822Z,1.10
2022-09-21T03:46:14.884Z,1.60
2022-09-21T03:48:47.331Z,1.33
2022-09-21T03:51:15.418Z,1.10
2022-09-21T03:53:44.728Z,1.27
2022-09-21T03:56:12.805Z,0.90
2022-09-21T03:58:41.699Z,1.00
2022-09-21T04:01:09.757Z,1.10
2022-09-21T04:03:38.563Z,0.90
2022-09-21T04:06:10.813Z,1.10
2022-09-21T04:08:38.815Z,1.47
2022-09-21T04:11:14.066Z,1.10
2022-09-21T04:13:42.366Z,0.83
2022-09-21T04:16:11.721Z,0.90
2022-09-21T04:18:40.182Z,0.97
2022-09-21T04:21:08.107Z,1.00
2022-09-21T04:23:36.133Z,1.37
2022-09-21T04:26:04.263Z,1.00
2022-09-21T04:28:33.589Z,0.97
2022-09-21T04:31:01.683Z,0.73
2022-09-21T04:33:29.677Z,1.30
2022-09-21T04:35:58.032Z,0.70
2022-09-21T04:38:26.005Z,0.80
2022-09-21T04:40:57.542Z,1.33
2022-09-21T04:43:26.089Z,1.40
2022-09-21T04:45:55.438Z,1.50
2022-09-21T04:48:23.461Z,2.23
2022-09-21T04:50:52.346Z,3.20
2022-09-21T04:53:20.349Z,2.97
2022-09-21T04:55:48.331Z,3.00
2022-09-21T04:58:16.296Z,2.83
2022-09-21T05:00:44.357Z,2.67
2022-09-21T05:03:13.741Z,3.50
2022-09-21T05:05:48.484Z,3.40
2022-09-21T05:08:17.208Z,2.90
2022-09-21T05:10:44.551Z,3.00
2022-09-21T05:13:15.603Z,3.07
2022-09-21T05:15:45.827Z,3.03
2022-09-21T05:18:15.163Z,3.00
2022-09-21T05:20:43.104Z,2.80
2022-09-21T05:23:16.154Z,2.70
2022-09-21T05:25:45.123Z,3.27
2022-09-21T05:28:13.923Z,3.27
2022-09-21T05:30:56.107Z,2.47
2022-09-21T05:33:33.811Z,3.03
2022-09-21T05:36:12.499Z,2.80
2022-09-21T05:38:41.303Z,2.70
2022-09-21T05:41:10.371Z,3.10
2022-09-21T05:43:39.089Z,3.40
2022-09-21T05:46:20.168Z,3.30
2022-09-21T05:48:58.101Z,3.93
2022-09-21T05:51:35.860Z,3.57
2022-09-21T05:54:14.581Z,2.50
2022-09-21T05:56:53.287Z,3.50
2022-09-21T05:59:51.985Z,3.03
2022-09-21T06:02:34.471Z,2.60
2022-09-21T06:05:08.431Z,2.63
2022-09-21T06:07:36.360Z,3.73
2022-09-21T06:10:05.312Z,2.57
2022-09-21T06:12:33.348Z,2.40
2022-09-21T06:15:01.359Z,2.97
2022-09-21T06:17:29.343Z,2.23
2022-09-21T06:19:57.295Z,2.77
2022-09-21T06:22:26.734Z,2.60
2022-09-21T06:24:54.747Z,2.80
2022-09-21T06:27:22.801Z,2.50
2022-09-21T06:29:50.834Z,2.40
2022-09-21T06:32:20.778Z,2.67
2022-09-21T06:34:49.827Z,2.60
2022-09-21T06:37:18.084Z,2.77
2022-09-21T06:39:49.658Z,2.60
2022-09-21T06:42:17.635Z,2.27
2022-09-21T06:44:46.820Z,3.10
2022-09-21T06:47:14.857Z,2.73
2022-09-21T06:49:42.936Z,3.20
2022-09-21T06:52:11.081Z,3.50
2022-09-21T06:54:39.601Z,2.63
2022-09-21T06:57:08.975Z,2.90
2022-09-21T06:59:36.937Z,3.70
2022-09-21T07:02:05.082Z,2.83
2022-09-21T07:04:33.169Z,2.83
2022-09-21T07:07:03.615Z,2.50
2022-09-21T07:12:22.002Z,5.43
2022-09-21T07:14:49.965Z,6.60
2022-09-21T07:17:17.945Z,6.27
2022-09-21T07:19:46.019Z,6.57
2022-09-21T07:22:13.982Z,6.70
2022-09-21T07:24:42.021Z,7.43
2022-09-21T07:27:09.996Z,6.83
2022-09-21T07:29:39.285Z,6.90
2022-09-21T07:32:07.259Z,6.10
2022-09-21T07:34:37.744Z,5.63
2022-09-21T07:37:05.856Z,4.77
2022-09-21T07:39:33.799Z,3.83
2022-09-21T07:42:01.786Z,3.43
2022-09-21T07:44:29.758Z,3.40
2022-09-21T07:46:59.063Z,2.93
2022-09-21T07:49:27.082Z,3.47
2022-09-21T07:51:55.104Z,2.63
2022-09-21T07:54:23.064Z,3.30
2022-09-21T07:57:05.007Z,3.67
2022-09-21T07:59:33.568Z,3.57
2022-09-21T08:02:02.933Z,3.57
2022-09-21T08:04:30.970Z,3.40
2022-09-21T08:06:59.014Z,2.70
2022-09-21T08:09:27.051Z,3.20
2022-09-21T08:11:55.588Z,2.70
2022-09-21T08:14:26.502Z,3.00
2022-09-21T08:16:54.871Z,3.43
2022-09-21T08:19:25.629Z,3.07
2022-09-21T08:21:57.574Z,3.30
2022-09-21T08:24:27.055Z,3.00
2022-09-21T08:26:55.619Z,2.40
2022-09-21T08:29:24.480Z,3.20
2022-09-21T08:31:53.190Z,2.53
2022-09-21T08:34:21.243Z,2.70
2022-09-21T08:36:55.032Z,3.27
2022-09-21T08:39:23.807Z,2.50
2022-09-21T08:42:21.784Z,3.17
2022-09-21T08:44:54.172Z,2.97
2022-09-21T08:47:33.565Z,2.90
2022-09-21T08:50:04.879Z,3.40
2022-09-21T08:52:34.787Z,3.07
2022-09-21T08:55:19.473Z,3.30
2022-09-21T08:57:47.524Z,2.90
2022-09-21T09:00:18.356Z,2.80
2022-09-21T09:03:24.222Z,3.63
2022-09-21T09:06:00.381Z,2.33
2022-09-21T09:08:56.261Z,3.07
2022-09-21T09:11:38.896Z,2.80
2022-09-21T09:14:28.078Z,3.00
2022-09-21T09:17:15.974Z,2.93
2022-09-21T09:19:49.019Z,3.30
2022-09-21T09:22:30.446Z,3.27
2022-09-21T09:25:04.832Z,4.13
2022-09-21T09:27:39.088Z,2.87
2022-09-21T09:30:17.698Z,2.57
2022-09-21T09:32:55.181Z,2.90
2022-09-21T09:35:29.314Z,2.70
2022-09-21T09:38:03.644Z,3.20
2022-09-21T09:40:52.694Z,2.77
2022-09-21T09:43:34.249Z,2.50
2022-09-21T09:46:13.574Z,2.80
2022-09-21T09:49:19.696Z,2.53
2022-09-21T09:51:49.107Z,2.40
2022-09-21T09:54:20.121Z,3.03
2022-09-21T09:56:49.445Z,2.30
2022-09-21T09:59:28.518Z,3.00
2022-09-21T10:02:05.762Z,2.90
2022-09-21T10:04:35.591Z,2.80
2022-09-21T10:07:03.620Z,2.83
2022-09-21T10:09:34.197Z,2.70
2022-09-21T10:12:17.145Z,2.70
2022-09-21T10:14:52.721Z,2.70
2022-09-21T10:17:21.213Z,2.63
2022-09-21T10:19:49.465Z,3.00
2022-09-21T10:22:19.950Z,2.80
2022-09-21T10:24:52.505Z,2.60
2022-09-21T10:27:27.407Z,3.60
2022-09-21T10:29:55.579Z,2.57
2022-09-21T10:32:26.381Z,2.33
2022-09-21T10:35:17.948Z,2.50
2022-09-21T10:37:49.205Z,2.33
2022-09-21T10:40:26.700Z,2.90
2022-09-21T10:42:59.705Z,2.43
2022-09-21T10:45:29.357Z,2.30
2022-09-21T10:47:59.883Z,2.57
2022-09-21T10:50:31.473Z,2.27
2022-09-21T10:53:03.875Z,2.77
2022-09-21T10:55:33.048Z,1.90
2022-09-21T10:58:02.430Z,2.13
2022-09-21T11:00:38.456Z,2.77
2022-09-21T11:03:48.468Z,2.23
2022-09-21T11:06:22.348Z,2.33
2022-09-21T11:08:57.144Z,2.10
2022-09-21T11:11:44.577Z,2.40
2022-09-21T11:14:28.707Z,2.83
2022-09-21T11:17:00.762Z,2.67
2022-09-21T11:19:42.280Z,2.20
2022-09-21T11:22:19.640Z,2.23
2022-09-21T11:24:53.672Z,2.20
2022-09-21T11:27:28.364Z,2.30
2022-09-21T11:30:03.946Z,2.20
2022-09-21T11:33:02.619Z,2.43
2022-09-21T11:35:49.532Z,2.07
2022-09-21T11:38:36.750Z,2.37
2022-09-21T11:41:38.246Z,1.97
2022-09-21T11:44:25.881Z,1.80
2022-09-21T11:47:07.376Z,2.37
2022-09-21T11:50:07.864Z,2.27
2022-09-21T11:52:58.295Z,2.20
2022-09-21T11:56:02.291Z,2.63
2022-09-21T11:58:38.820Z,1.93
2022-09-21T12:01:19.969Z,2.30
2022-09-21T12:04:16.988Z,2.10
2022-09-21T12:07:00.436Z,2.17
2022-09-21T12:10:06.225Z,1.97
2022-09-21T12:12:44.499Z,2.10
2022-09-21T12:15:19.597Z,2.47
2022-09-21T12:17:59.547Z,2.33
2022-09-21T12:20:38.106Z,2.13
2022-09-21T12:23:14.198Z,2.10
2022-09-21T12:25:47.767Z,2.33
2022-09-21T12:28:23.629Z,2.00
2022-09-21T12:31:00.590Z,2.43
2022-09-21T12:33:40.368Z,2.40
2022-09-21T12:36:17.153Z,2.10
2022-09-21T12:38:52.936Z,1.90
2022-09-21T12:41:32.017Z,1.90
2022-09-21T12:44:11.032Z,2.00
2022-09-21T12:46:45.147Z,1.90
2022-09-21T12:49:17.192Z,1.70
2022-09-21T12:51:54.424Z,2.17
2022-09-21T12:54:37.772Z,1.80
2022-09-21T12:57:42.537Z,1.70
2022-09-21T13:00:14.576Z,2.10
2022-09-21T13:02:49.401Z,1.73
2022-09-21T13:05:32.093Z,1.80
2022-09-21T13:08:14.422Z,2.03
2022-09-21T13:10:54.697Z,2.00
2022-09-21T13:13:31.019Z,2.00
2022-09-21T13:16:00.456Z,1.60
2022-09-21T13:18:36.237Z,1.77
2022-09-21T13:21:17.961Z,1.90
2022-09-21T13:23:56.412Z,1.70
2022-09-21T13:26:35.789Z,1.90
2022-09-21T13:29:36.206Z,1.60
2022-09-21T13:32:20.785Z,1.73
2022-09-21T13:34:50.813Z,1.60
2022-09-21T13:37:33.811Z,1.60
2022-09-21T13:40:46.814Z,1.60
2022-09-21T13:43:24.536Z,1.90
2022-09-21T13:45:59.563Z,1.63
2022-09-21T13:48:32.503Z,1.80
2022-09-21T13:51:06.571Z,1.67
2022-09-21T13:53:40.782Z,1.53
2022-09-21T13:56:21.045Z,1.77
2022-09-21T13:58:53.632Z,1.93
2022-09-21T14:01:46.347Z,1.73
2022-09-21T14:04:25.452Z,1.73
2022-09-21T14:06:55.775Z,2.20
2022-09-21T14:09:28.402Z,2.70
2022-09-21T14:12:01.585Z,1.93
2022-09-21T14:14:33.921Z,1.80
2022-09-21T14:17:03.965Z,1.43
2022-09-21T14:20:01.997Z,1.50
2022-09-21T14:22:43.912Z,1.60
2022-09-21T14:25:53.011Z,2.00
2022-09-21T14:28:35.413Z,2.27
2022-09-21T14:31:07.955Z,1.80
2022-09-21T14:33:45.913Z,1.60
2022-09-21T14:36:20.612Z,1.77
2022-09-21T14:38:54.668Z,1.73
2022-09-21T14:41:25.408Z,1.67
2022-09-21T14:43:56.475Z,1.10
2022-09-21T14:46:51.874Z,1.30
2022-09-21T14:49:40.773Z,1.50
2022-09-21T14:52:31.896Z,1.67
2022-09-21T14:55:15.651Z,1.70
2022-09-21T14:58:17.171Z,1.50
2022-09-21T15:00:49.779Z,1.73
2022-09-21T15:03:38.931Z,1.20
2022-09-21T15:06:38.474Z,1.40
2022-09-21T15:10:04.713Z,1.73
2022-09-21T15:12:43.513Z,1.60
2022-09-21T15:15:29.911Z,1.93
2022-09-21T15:18:01.872Z,2.00
2022-09-21T15:20:33.053Z,2.20
2022-09-21T15:23:02.027Z,2.17
2022-09-21T15:25:33.373Z,1.73
2022-09-21T15:28:01.947Z,2.10
2022-09-21T15:30:33.613Z,1.53
2022-09-21T15:33:04.040Z,1.13
2022-09-21T15:35:33.807Z,2.17
2022-09-21T15:38:02.306Z,2.60
2022-09-21T15:40:33.244Z,1.67
2022-09-21T15:43:05.510Z,2.20
2022-09-21T15:45:51.605Z,1.70
2022-09-21T15:48:21.542Z,1.60
2022-09-21T15:50:57.787Z,1.50
2022-09-21T15:53:30.918Z,2.00
2022-09-21T15:56:01.430Z,2.17
2022-09-21T15:58:35.700Z,1.30
2022-09-21T16:01:11.299Z,2.40
2022-09-21T16:03:41.980Z,2.67
2022-09-21T16:06:26.764Z,2.17
2022-09-21T16:08:55.753Z,3.90
2022-09-21T16:11:35.837Z,5.47
2022-09-21T16:14:29.063Z,7.47
2022-09-21T16:17:22.099Z,49.30
2022-09-21T16:20:19.661Z,59.37
2022-09-21T16:22:50.534Z,124.90
2022-09-21T16:25:38.215Z,120.93
2022-09-21T16:28:26.364Z,116.10
2022-09-21T16:30:57.225Z,100.27
2022-09-21T16:34:01.465Z,103.13
2022-09-21T16:36:44.721Z,93.73
2022-09-21T16:39:16.123Z,88.37
2022-09-21T16:41:58.201Z,80.67
2022-09-21T16:44:27.924Z,82.07
2022-09-21T16:46:59.883Z,74.53
2022-09-21T16:49:32.641Z,64.43
2022-09-21T16:52:02.619Z,61.13
2022-09-21T16:54:30.966Z,56.70
2022-09-21T16:57:00.696Z,53.07
2022-09-21T16:59:29.376Z,52.03
2022-09-21T17:02:00.284Z,49.73
2022-09-21T17:04:31.104Z,49.33
2022-09-21T17:07:00.712Z,46.20
2022-09-21T17:09:33.171Z,38.00
2022-09-21T17:12:02.679Z,41.30
2022-09-21T17:14:35.232Z,35.07
2022-09-21T17:17:08.239Z,36.47
2022-09-21T17:19:36.761Z,34.70
2022-09-21T17:22:07.187Z,35.07
2022-09-21T17:24:50.341Z,36.40
2022-09-21T17:27:22.642Z,35.53
2022-09-21T17:29:51.064Z,36.90
2022-09-21T17:32:21.786Z,33.60
2022-09-21T17:34:57.517Z,31.97
2022-09-21T17:37:27.080Z,32.13
2022-09-21T17:39:55.000Z,31.97
2022-09-21T17:42:25.627Z,31.50
2022-09-21T17:45:13.311Z,31.63
2022-09-21T17:47:42.233Z,31.97
2022-09-21T17:50:22.893Z,32.07
2022-09-21T17:53:11.263Z,29.40
2022-09-21T17:55:40.168Z,30.27
2022-09-21T17:58:33.576Z,35.00
2022-09-21T18:01:08.245Z,32.30
2022-09-21T18:03:41.674Z,32.40
2022-09-21T18:06:11.165Z,33.33
2022-09-21T18:08:41.705Z,33.07
2022-09-21T18:11:25.534Z,34.73
2022-09-21T18:14:05.515Z,30.73
2022-09-21T18:16:45.914Z,31.13
2022-09-21T18:19:33.212Z,31.73
2022-09-21T18:22:13.746Z,27.70
2022-09-21T18:24:44.541Z,25.53
2022-09-21T18:27:13.856Z,25.50
2022-09-21T18:29:42.658Z,25.67
2022-09-21T18:32:39.535Z,24.37
2022-09-21T18:35:27.561Z,23.00
2022-09-21T18:38:16.237Z,23.67
2022-09-21T18:41:03.014Z,21.80
2022-09-21T18:43:44.727Z,24.50
2022-09-21T18:46:17.993Z,25.90
2022-09-21T18:48:59.943Z,22.07
2022-09-21T18:51:37.502Z,23.23
2022-09-21T18:54:06.187Z,21.60
2022-09-21T18:56:38.728Z,23.30
2022-09-21T18:59:07.349Z,21.10
2022-09-21T19:01:36.412Z,24.90
2022-09-21T19:04:05.706Z,22.13
2022-09-21T19:06:45.263Z,18.60
2022-09-21T19:09:37.400Z,19.20
2022-09-21T19:12:21.327Z,21.50
2022-09-21T19:15:07.840Z,21.27
2022-09-21T19:17:58.962Z,20.73
2022-09-21T19:20:43.891Z,19.30
2022-09-21T19:23:38.005Z,20.27
2022-09-21T19:26:15.868Z,19.67
2022-09-21T19:29:04.036Z,16.10
2022-09-21T19:31:33.006Z,19.07
2022-09-21T19:34:12.939Z,18.00
2022-09-21T19:36:41.614Z,19.43
2022-09-21T19:39:11.580Z,19.43
2022-09-21T19:41:54.491Z,18.90
2022-09-21T19:44:41.538Z,19.83
2022-09-21T19:47:21.736Z,20.67
2022-09-21T19:49:53.866Z,19.77
2022-09-21T19:52:30.798Z,20.00
2022-09-21T19:55:17.716Z,19.90
2022-09-21T19:58:04.597Z,20.33
2022-09-21T20:00:34.502Z,19.53
2022-09-21T20:03:08.900Z,20.20
2022-09-21T20:05:48.183Z,20.37
2022-09-21T20:08:24.445Z,18.07
2022-09-21T20:11:13.987Z,20.83
2022-09-21T20:13:58.593Z,19.40
2022-09-21T20:16:40.167Z,20.40
2022-09-21T20:19:31.151Z,20.80
2022-09-21T20:22:04.752Z,19.50
2022-09-21T20:24:43.018Z,20.27
2022-09-21T20:27:26.851Z,20.97
2022-09-21T20:29:54.944Z,20.00
2022-09-21T20:32:24.469Z,21.00
2022-09-21T20:34:52.399Z,19.23
2022-09-21T20:37:22.261Z,18.73
2022-09-21T20:39:50.284Z,19.00
2022-09-21T20:42:21.948Z,21.33
2022-09-21T20:44:50.239Z,20.30
2022-09-21T20:47:19.325Z,19.93
2022-09-21T20:49:49.098Z,19.73
2022-09-21T20:52:18.136Z,18.10
2022-09-21T20:54:49.225Z,18.90
2022-09-21T20:57:17.807Z,18.73
2022-09-21T20:59:45.912Z,20.27
2022-09-21T21:02:16.447Z,20.90
2022-09-21T21:04:44.477Z,19.07
2022-09-21T21:07:13.858Z,19.13
2022-09-21T21:09:41.860Z,17.00
2022-09-21T21:12:10.496Z,17.60
2022-09-21T21:14:38.933Z,18.30
2022-09-21T21:17:07.044Z,16.77
2022-09-21T21:19:35.170Z,17.70
2022-09-21T21:22:03.184Z,15.80
2022-09-21T21:24:41.909Z,18.23
2022-09-21T21:27:14.653Z,17.27
2022-09-21T21:29:43.240Z,16.30
2022-09-21T21:32:11.353Z,16.63
2022-09-21T21:34:39.296Z,17.60
2022-09-21T21:37:07.446Z,16.83
2022-09-21T21:39:36.847Z,16.30
2022-09-21T21:42:05.767Z,15.97
2022-09-21T21:44:34.103Z,16.93
2022-09-21T21:47:20.927Z,16.13
2022-09-21T21:49:49.994Z,16.10
2022-09-21T21:52:17.983Z,14.73
2022-09-21T21:54:47.308Z,14.77
2022-09-21T21:57:15.328Z,15.17
2022-09-21T21:59:43.698Z,13.47
2022-09-21T22:02:12.023Z,15.20
2022-09-21T22:04:40.045Z,14.10
2022-09-21T22:07:08.055Z,14.57
2022-09-21T22:09:36.048Z,15.93
2022-09-21T22:12:05.692Z,13.73
2022-09-21T22:14:33.693Z,15.53
2022-09-21T22:17:01.670Z,14.93
2022-09-21T22:19:29.740Z,15.87
2022-09-21T22:21:57.777Z,15.57
2022-09-21T22:24:26.131Z,16.10
2022-09-21T22:26:54.130Z,14.50
2022-09-21T22:29:23.513Z,16.67
2022-09-21T22:31:51.686Z,15.50
2022-09-21T22:34:20.789Z,14.53
2022-09-21T22:36:48.831Z,15.33
2022-09-21T22:39:16.911Z,15.23
2022-09-21T22:41:45.243Z,14.70
2022-09-21T22:44:13.534Z,15.93
2022-09-21T22:46:42.975Z,15.13
2022-09-21T22:49:11.004Z,15.67
2022-09-21T22:51:38.996Z,12.77
2022-09-21T22:54:07.408Z,13.37
2022-09-21T22:56:36.007Z,13.90
2022-09-21T22:59:06.168Z,12.80
2022-09-21T23:01:36.566Z,13.73
2022-09-21T23:04:08.202Z,14.43
2022-09-21T23:06:39.107Z,14.07
2022-09-21T23:09:10.368Z,12.73
2022-09-21T23:11:42.683Z,13.30
2022-09-21T23:14:12.748Z,12.77
2022-09-21T23:16:41.245Z,13.27
2022-09-21T23:19:15.588Z,13.60
2022-09-21T23:21:45.963Z,12.80
2022-09-21T23:24:14.007Z,12.40
2022-09-21T23:26:42.159Z,12.73
2022-09-21T23:29:13.435Z,13.60
2022-09-21T23:31:45.071Z,12.97
2022-09-21T23:34:16.915Z,13.80
2022-09-21T23:36:46.240Z,12.40
2022-09-21T23:39:16.091Z,12.40
2022-09-21T23:41:44.716Z,12.57
2022-09-21T23:44:13.230Z,11.93
2022-09-21T23:46:42.068Z,13.07
2022-09-21T23:49:10.593Z,12.37
2022-09-21T23:51:40.218Z,11.60
2022-09-21T23:54:08.803Z,12.30
2022-09-21T23:56:36.933Z,12.47
2022-09-21T23:59:05.392Z,11.63
